createdAt,value
2017-11-14T00:00:48.733Z,95907.38
2017-11-14T00:03:17.777Z,95912.62
2017-11-14T00:05:47.292Z,95921.16
2017-11-14T00:08:16.371Z,95924.55
2017-11-14T00:10:45.427Z,95925.75
2017-11-14T00:13:14.467Z,95930.20
2017-11-14T00:15:43.533Z,95931.61
2017-11-14T00:18:12.607Z,95938.92
2017-11-14T00:20:41.653Z,95942.55
2017-11-14T00:23:10.683Z,95947.63
2017-11-14T00:25:39.761Z,95944.70
2017-11-14T00:28:08.789Z,95950.20
2017-11-14T00:30:37.852Z,95946.89
2017-11-14T00:33:06.894Z,95948.80
2017-11-14T00:35:35.947Z,95946.95
2017-11-14T00:38:04.995Z,95950.52
2017-11-14T00:40:34.031Z,95952.00
2017-11-14T00:43:03.181Z,95953.30
2017-11-14T00:45:32.249Z,95956.95
2017-11-14T00:48:02.268Z,95958.75
2017-11-14T00:53:06.562Z,95958.60
2017-11-14T00:55:35.618Z,95961.73
2017-11-14T00:58:04.660Z,95962.87
2017-11-14T01:00:33.712Z,95959.08
2017-11-14T01:03:02.760Z,95963.88
2017-11-14T01:05:31.825Z,95972.11
2017-11-14T01:08:02.095Z,95973.23
2017-11-14T01:10:31.155Z,95977.27
2017-11-14T01:13:00.231Z,95980.05
2017-11-14T01:15:29.284Z,95984.86
2017-11-14T01:17:58.349Z,95983.25
2017-11-14T01:20:29.374Z,95982.73
2017-11-14T01:22:58.449Z,95985.63
2017-11-14T01:25:27.495Z,95987.09
2017-11-14T01:27:56.631Z,95980.77
2017-11-14T01:30:25.695Z,95985.83
2017-11-14T01:32:54.772Z,95984.84
2017-11-14T01:35:27.584Z,95977.17
2017-11-14T01:37:56.644Z,95973.68
2017-11-14T01:40:25.699Z,95976.67
2017-11-14T01:42:54.844Z,95981.55
2017-11-14T01:45:24.874Z,95979.56
2017-11-14T01:47:53.931Z,95983.56
2017-11-14T01:50:22.987Z,95983.51
2017-11-14T01:52:52.047Z,95987.66
2017-11-14T01:55:21.127Z,95992.34
2017-11-14T01:57:50.179Z,95993.89
2017-11-14T02:00:38.018Z,95998.24
2017-11-14T02:03:07.081Z,95993.39
2017-11-14T02:05:36.207Z,95989.52
2017-11-14T02:08:05.296Z,95992.86
2017-11-14T02:10:41.278Z,95992.27
2017-11-14T02:15:47.624Z,95990.58
2017-11-14T02:20:52.843Z,95995.62
2017-11-14T02:23:26.691Z,95997.98
2017-11-14T02:26:01.135Z,96002.13
2017-11-14T02:28:31.249Z,96000.69
2017-11-14T02:31:00.328Z,96003.44
2017-11-14T02:33:30.378Z,96006.84
2017-11-14T02:35:59.438Z,96007.13
2017-11-14T02:41:04.414Z,96023.03
2017-11-14T02:43:41.067Z,96024.70
2017-11-14T02:46:10.151Z,96032.09
2017-11-14T02:48:39.211Z,96032.55
2017-11-14T02:51:10.244Z,96034.30
2017-11-14T02:53:39.304Z,96041.84
2017-11-14T02:56:08.351Z,96041.97
2017-11-14T02:58:39.356Z,96044.30
2017-11-14T03:01:08.416Z,96040.93
2017-11-14T03:03:39.372Z,96043.20
2017-11-14T03:06:08.438Z,96048.84
2017-11-14T03:08:39.475Z,96045.27
2017-11-14T03:11:09.476Z,96046.61
2017-11-14T03:13:38.531Z,96049.65
2017-11-14T03:16:09.525Z,96050.47
2017-11-14T03:18:39.536Z,96046.66
2017-11-14T03:21:08.584Z,96050.63
2017-11-14T03:23:37.651Z,96049.83
2017-11-14T03:26:07.651Z,96050.58
2017-11-14T03:28:36.759Z,96056.78
2017-11-14T03:31:05.813Z,96064.90
2017-11-14T03:33:34.860Z,96064.62
2017-11-14T03:36:03.948Z,96064.71
2017-11-14T03:38:33.013Z,96073.31
2017-11-14T03:41:02.064Z,96073.58
2017-11-14T03:43:32.106Z,96077.90
2017-11-14T03:46:02.097Z,96075.91
2017-11-14T03:48:32.120Z,96075.39
2017-11-14T03:51:02.148Z,96079.70
2017-11-14T03:53:32.231Z,96081.08
2017-11-14T03:56:01.279Z,96086.89
2017-11-14T04:01:06.615Z,96097.36
2017-11-14T04:03:35.676Z,96100.45
2017-11-14T04:06:04.729Z,96105.42
2017-11-14T04:11:11.099Z,96117.82
2017-11-14T04:13:40.155Z,96118.89
2017-11-14T04:16:09.196Z,96125.67
2017-11-14T04:21:13.504Z,96127.02
2017-11-14T04:23:42.588Z,96131.99
2017-11-14T04:26:12.601Z,96128.25
2017-11-14T04:28:41.687Z,96133.99
2017-11-14T04:31:13.834Z,96129.66
2017-11-14T04:33:42.884Z,96135.47
2017-11-14T04:36:30.737Z,96134.48
2017-11-14T04:38:59.814Z,96132.58
2017-11-14T04:41:28.874Z,96133.52
2017-11-14T04:43:57.923Z,96137.13
2017-11-14T04:46:27.160Z,96138.67
2017-11-14T04:48:56.344Z,96151.18
2017-11-14T04:51:26.401Z,96149.23
2017-11-14T04:53:55.462Z,96141.34
2017-11-14T04:56:24.509Z,96142.32
2017-11-14T04:58:53.588Z,96144.23
2017-11-14T05:01:32.571Z,96147.81
2017-11-14T05:04:04.691Z,96150.88
2017-11-14T05:09:17.439Z,96150.33
2017-11-14T05:11:50.073Z,96155.12
2017-11-14T05:14:19.138Z,96151.44
2017-11-14T05:16:48.190Z,96159.55
2017-11-14T05:19:19.232Z,96165.75
2017-11-14T05:21:48.300Z,96168.56
2017-11-14T05:24:17.356Z,96165.77
2017-11-14T05:26:47.383Z,96167.89
2017-11-14T05:29:17.476Z,96172.16
2017-11-14T05:31:46.528Z,96179.90
2017-11-14T05:34:15.608Z,96176.48
2017-11-14T05:36:44.673Z,96191.27
2017-11-14T05:39:13.761Z,96186.41
2017-11-14T05:41:42.835Z,96182.98
2017-11-14T05:44:11.935Z,96188.67
2017-11-14T05:46:41.020Z,96191.88
2017-11-14T05:49:10.081Z,96194.94
2017-11-14T05:51:39.163Z,96198.78
2017-11-14T05:56:45.493Z,96201.66
2017-11-14T05:59:15.575Z,96198.10
2017-11-14T06:01:44.663Z,96195.69
2017-11-14T06:06:53.512Z,96203.67
2017-11-14T06:09:23.532Z,96202.89
2017-11-14T06:11:52.587Z,96204.81
2017-11-14T06:14:21.640Z,96210.47
2017-11-14T06:16:50.692Z,96213.11
2017-11-14T06:19:23.709Z,96220.37
2017-11-14T06:21:52.797Z,96228.48
2017-11-14T06:24:21.987Z,96229.38
2017-11-14T06:26:51.035Z,96232.59
2017-11-14T06:29:20.365Z,96234.86
2017-11-14T06:31:50.465Z,96233.50
2017-11-14T06:36:58.295Z,96243.23
2017-11-14T06:39:31.475Z,96242.30
2017-11-14T06:44:39.692Z,96253.27
2017-11-14T06:47:13.763Z,96259.40
2017-11-14T06:49:43.055Z,96262.27
2017-11-14T06:52:15.775Z,96268.53
2017-11-14T06:54:44.972Z,96272.81
2017-11-14T06:57:14.071Z,96277.54
2017-11-14T06:59:43.149Z,96279.39
2017-11-14T07:02:12.196Z,96272.27
2017-11-14T07:04:41.260Z,96276.47
2017-11-14T07:07:10.318Z,96283.06
2017-11-14T07:09:39.375Z,96285.05
2017-11-14T07:12:08.708Z,96287.13
2017-11-14T07:14:40.021Z,96290.49
2017-11-14T07:17:14.068Z,96292.33
2017-11-14T07:19:44.026Z,96302.13
2017-11-14T07:22:13.091Z,96297.88
2017-11-14T07:24:43.136Z,96300.94
2017-11-14T07:27:13.204Z,96303.52
2017-11-14T07:29:42.271Z,96303.45
2017-11-14T07:32:11.336Z,96305.06
2017-11-14T07:34:40.389Z,96310.67
2017-11-14T07:39:45.632Z,96312.37
2017-11-14T07:44:49.947Z,96318.06
2017-11-14T07:50:01.143Z,96325.88
2017-11-14T07:55:13.855Z,96330.96
2017-11-14T07:57:43.839Z,96330.88
2017-11-14T08:02:48.156Z,96329.89
2017-11-14T08:05:17.784Z,96330.00
2017-11-14T08:07:47.088Z,96329.41
2017-11-14T08:10:21.511Z,96325.69
2017-11-14T08:12:51.059Z,96325.55
2017-11-14T08:17:58.113Z,96322.00
2017-11-14T08:20:29.378Z,96316.97
2017-11-14T08:23:02.370Z,96318.58
2017-11-14T08:25:31.472Z,96319.44
2017-11-14T08:28:04.241Z,96321.95
2017-11-14T08:30:33.285Z,96323.94
2017-11-14T08:33:02.341Z,96328.63
2017-11-14T08:35:31.442Z,96326.97
2017-11-14T08:38:03.442Z,96325.11
2017-11-14T08:40:34.472Z,96324.95
2017-11-14T08:43:03.567Z,96329.16
2017-11-14T08:45:32.666Z,96330.75
2017-11-14T08:48:02.711Z,96335.30
2017-11-14T08:50:31.897Z,96335.40
2017-11-14T08:53:01.915Z,96329.52
2017-11-14T08:55:30.961Z,96340.88
2017-11-14T08:58:00.055Z,96341.39
2017-11-14T09:00:29.098Z,96342.23
2017-11-14T09:02:59.151Z,96340.44
2017-11-14T09:05:33.122Z,96348.56
2017-11-14T09:08:03.658Z,96348.20
2017-11-14T09:10:32.702Z,96353.81
2017-11-14T09:13:01.764Z,96358.21
2017-11-14T09:15:30.829Z,96357.85
2017-11-14T09:18:00.072Z,96361.37
2017-11-14T09:20:29.120Z,96366.68
2017-11-14T09:22:58.164Z,96363.94
2017-11-14T09:25:27.211Z,96366.63
2017-11-14T09:27:56.265Z,96366.61
2017-11-14T09:30:25.313Z,96366.98
2017-11-14T09:32:54.383Z,96367.42
2017-11-14T09:35:23.425Z,96361.41
2017-11-14T09:37:52.482Z,96359.19
2017-11-14T09:40:21.527Z,96358.86
2017-11-14T09:45:27.000Z,96365.28
2017-11-14T09:47:56.018Z,96358.91
2017-11-14T09:50:25.867Z,96360.02
2017-11-14T09:52:55.849Z,96363.65
2017-11-14T09:55:24.909Z,96364.35
2017-11-14T09:57:54.349Z,96359.06
2017-11-14T10:00:25.231Z,96360.30
2017-11-14T10:02:54.297Z,96359.06
2017-11-14T10:05:23.704Z,96359.63
2017-11-14T10:07:55.237Z,96352.93
2017-11-14T10:10:26.257Z,96344.04
2017-11-14T10:12:56.291Z,96342.40
2017-11-14T10:15:25.349Z,96348.27
2017-11-14T10:17:54.480Z,96345.45
2017-11-14T10:20:23.524Z,96351.58
2017-11-14T10:22:53.445Z,96346.23
2017-11-14T10:25:22.507Z,96355.45
2017-11-14T10:30:28.200Z,96347.61
2017-11-14T10:32:58.537Z,96346.77
2017-11-14T10:35:27.977Z,96345.27
2017-11-14T10:37:57.152Z,96336.11
2017-11-14T10:40:26.237Z,96332.97
2017-11-14T10:42:55.264Z,96327.26
2017-11-14T10:45:24.718Z,96329.17
2017-11-14T10:47:57.059Z,96327.89
2017-11-14T10:50:26.124Z,96328.10
2017-11-14T10:52:55.180Z,96330.27
2017-11-14T10:55:24.785Z,96323.92
2017-11-14T10:57:54.727Z,96321.72
2017-11-14T11:00:32.860Z,96319.44
2017-11-14T11:03:02.956Z,96313.19
2017-11-14T11:05:32.037Z,96316.56
2017-11-14T11:08:01.108Z,96317.97
2017-11-14T11:10:31.361Z,96317.42
2017-11-14T11:13:04.973Z,96314.41
2017-11-14T11:15:36.794Z,96316.70
2017-11-14T11:18:05.966Z,96319.70
2017-11-14T11:20:36.020Z,96322.07
2017-11-14T11:25:40.279Z,96312.17
2017-11-14T11:28:10.576Z,96307.88
2017-11-14T11:30:41.427Z,96308.70
2017-11-14T11:35:46.075Z,96314.58
2017-11-14T11:38:15.116Z,96321.80
2017-11-14T11:40:44.163Z,96319.32
2017-11-14T11:45:52.783Z,96321.55
2017-11-14T11:48:21.813Z,96319.40
2017-11-14T11:50:51.941Z,96320.58
2017-11-14T11:53:20.989Z,96313.47
2017-11-14T11:55:50.101Z,96312.77
2017-11-14T11:58:19.125Z,96303.58
2017-11-14T12:00:52.198Z,96299.48
2017-11-14T12:03:21.380Z,96293.84
2017-11-14T12:05:50.413Z,96288.57
2017-11-14T12:08:21.207Z,96287.84
2017-11-14T12:10:50.294Z,96282.13
2017-11-14T12:13:19.394Z,96285.19
2017-11-14T12:15:49.639Z,96282.59
2017-11-14T12:18:19.895Z,96278.30
2017-11-14T12:20:48.931Z,96273.90
2017-11-14T12:23:17.988Z,96275.10
2017-11-14T12:28:22.372Z,96267.72
2017-11-14T12:30:55.604Z,96270.48
2017-11-14T12:33:24.762Z,96272.26
2017-11-14T12:35:53.824Z,96274.17
2017-11-14T12:38:23.635Z,96277.33
2017-11-14T12:43:28.344Z,96273.51
2017-11-14T12:46:02.555Z,96270.34
2017-11-14T12:48:32.511Z,96273.56
2017-11-14T12:51:03.857Z,96276.42
2017-11-14T12:53:32.884Z,96271.72
2017-11-14T12:56:05.388Z,96262.00
2017-11-14T12:58:34.452Z,96257.52
2017-11-14T13:01:04.708Z,96257.63
2017-11-14T13:03:35.920Z,96250.64
2017-11-14T13:08:40.204Z,96249.53
2017-11-14T13:11:10.273Z,96246.16
2017-11-14T13:13:41.502Z,96256.47
2017-11-14T13:16:10.594Z,96261.53
2017-11-14T13:18:40.680Z,96263.87
2017-11-14T13:23:46.057Z,96261.40
2017-11-14T13:26:15.091Z,96266.09
2017-11-14T13:28:44.167Z,96260.80
2017-11-14T13:31:16.642Z,96260.08
2017-11-14T13:36:27.581Z,96248.41
2017-11-14T13:41:32.818Z,96262.23
2017-11-14T13:44:01.944Z,96267.18
2017-11-14T13:46:34.034Z,96270.39
2017-11-14T13:49:04.279Z,96278.38
2017-11-14T13:51:33.524Z,96278.00
2017-11-14T13:54:04.824Z,96271.52
2017-11-14T13:56:37.240Z,96267.80
2017-11-14T13:59:06.270Z,96276.39
2017-11-14T14:01:44.492Z,96278.31
2017-11-14T14:04:14.696Z,96278.61
2017-11-14T14:06:43.794Z,96272.27
2017-11-14T14:11:51.557Z,96270.28
2017-11-14T14:14:22.033Z,96272.69
2017-11-14T14:16:51.174Z,96278.83
2017-11-14T14:19:21.572Z,96281.70
2017-11-14T14:21:50.624Z,96283.97
2017-11-14T14:24:20.259Z,96283.38
2017-11-14T14:29:31.012Z,96292.75
2017-11-14T14:32:03.098Z,96293.42
2017-11-14T14:34:34.559Z,96288.56
2017-11-14T14:37:05.426Z,96284.81
2017-11-14T14:39:35.488Z,96285.38
2017-11-14T14:42:04.524Z,96290.54
2017-11-14T14:44:34.707Z,96285.82
2017-11-14T14:47:07.511Z,96283.78
2017-11-14T14:49:39.255Z,96284.77
2017-11-14T14:52:08.291Z,96281.65
2017-11-14T14:57:12.579Z,96274.45
2017-11-14T15:02:17.292Z,96282.96
2017-11-14T15:04:46.444Z,96281.17
2017-11-14T15:07:15.491Z,96289.42
2017-11-14T15:09:44.539Z,96284.86
2017-11-14T15:12:15.563Z,96289.80
2017-11-14T15:14:47.468Z,96296.44
2017-11-14T15:17:19.041Z,96299.39
2017-11-14T15:19:49.813Z,96296.68
2017-11-14T15:22:20.971Z,96299.81
2017-11-14T15:24:50.845Z,96301.55
2017-11-14T15:27:19.895Z,96307.27
2017-11-14T15:29:51.880Z,96305.84
2017-11-14T15:32:21.758Z,96304.46
2017-11-14T15:34:52.794Z,96305.70
2017-11-14T15:37:22.726Z,96314.48
2017-11-14T15:39:55.135Z,96319.84
2017-11-14T15:42:24.503Z,96318.03
2017-11-14T15:44:54.912Z,96319.64
2017-11-14T15:47:24.050Z,96321.27
2017-11-14T15:49:54.989Z,96317.17
2017-11-14T15:52:24.075Z,96321.71
2017-11-14T15:54:54.206Z,96324.06
2017-11-14T15:57:23.290Z,96327.16
2017-11-14T15:59:54.392Z,96331.72
2017-11-14T16:02:23.506Z,96331.16
2017-11-14T16:04:53.952Z,96327.75
2017-11-14T16:07:23.923Z,96324.45
2017-11-14T16:09:57.461Z,96323.75
2017-11-14T16:12:26.491Z,96329.09
2017-11-14T16:14:57.786Z,96334.86
2017-11-14T16:17:26.895Z,96330.78
2017-11-14T16:19:59.476Z,96338.89
2017-11-14T16:22:28.735Z,96349.70
2017-11-14T16:24:59.565Z,96350.09
2017-11-14T16:27:28.638Z,96355.09
2017-11-14T16:30:00.025Z,96356.63
2017-11-14T16:45:52.003Z,96383.77
2017-11-14T16:48:21.086Z,96385.56
2017-11-14T16:50:50.123Z,96384.28
2017-11-14T16:53:19.202Z,96388.37
2017-11-14T16:55:48.518Z,96391.69
2017-11-14T16:58:17.607Z,96385.78
2017-11-14T17:00:47.640Z,96392.33
2017-11-14T17:05:58.526Z,96387.69
2017-11-14T17:08:28.863Z,96388.92
2017-11-14T17:10:57.914Z,96389.90
2017-11-14T17:13:26.970Z,96394.22
2017-11-14T17:15:56.027Z,96400.38
2017-11-14T17:18:25.165Z,96404.28
2017-11-14T17:20:54.240Z,96406.09
2017-11-14T17:23:24.316Z,96410.59
2017-11-14T17:25:53.353Z,96412.80
2017-11-14T17:28:26.347Z,96415.68
2017-11-14T17:30:55.400Z,96414.78
2017-11-14T17:33:24.440Z,96420.66
2017-11-14T17:35:53.524Z,96426.91
2017-11-14T17:38:22.644Z,96423.22
2017-11-14T17:40:51.699Z,96430.84
2017-11-14T17:43:20.783Z,96434.12
2017-11-14T17:45:49.824Z,96435.75
2017-11-14T17:48:18.924Z,96435.65
2017-11-14T17:50:48.018Z,96437.77
2017-11-14T17:53:17.976Z,96436.87
2017-11-14T17:55:47.016Z,96438.27
2017-11-14T17:58:23.803Z,96440.00
2017-11-14T18:00:52.945Z,96436.06
2017-11-14T18:03:22.215Z,96442.78
2017-11-14T18:05:51.267Z,96444.86
2017-11-14T18:08:23.628Z,96443.02
2017-11-14T18:10:52.704Z,96446.44
2017-11-14T18:13:22.721Z,96452.05
2017-11-14T18:18:32.989Z,96465.84
2017-11-14T18:21:02.043Z,96465.50
2017-11-14T18:23:31.097Z,96470.05
2017-11-14T18:26:00.217Z,96470.33
2017-11-14T18:28:29.271Z,96467.99
2017-11-14T18:30:58.330Z,96480.34
2017-11-14T18:33:27.448Z,96477.37
2017-11-14T18:35:57.932Z,96485.75
2017-11-14T18:41:05.247Z,96486.95
2017-11-14T18:43:35.248Z,96484.43
2017-11-14T18:46:05.553Z,96486.02
2017-11-14T18:48:36.650Z,96480.39
2017-11-14T18:51:06.644Z,96485.91
2017-11-14T18:53:35.668Z,96483.95
2017-11-14T18:56:06.379Z,96485.78
2017-11-14T18:58:36.409Z,96484.77
2017-11-14T19:01:06.316Z,96481.59
2017-11-14T19:03:39.419Z,96482.09
2017-11-14T19:06:13.074Z,96480.85
2017-11-14T19:11:18.416Z,96484.72
2017-11-14T19:13:47.462Z,96485.22
2017-11-14T19:16:18.521Z,96481.50
2017-11-14T19:18:48.642Z,96480.96
2017-11-14T19:21:17.694Z,96487.03
2017-11-14T19:23:46.853Z,96495.52
2017-11-14T19:26:18.676Z,96497.14
2017-11-14T19:28:47.755Z,96497.45
2017-11-14T19:31:16.830Z,96495.96
2017-11-14T19:33:49.222Z,96495.52
2017-11-14T19:36:20.381Z,96492.42
2017-11-14T19:38:51.106Z,96497.55
2017-11-14T19:41:20.380Z,96488.45
2017-11-14T19:46:25.039Z,96485.78
2017-11-14T19:48:54.382Z,96489.41
2017-11-14T19:51:23.949Z,96491.79
2017-11-14T19:53:55.701Z,96497.41
2017-11-14T19:56:25.265Z,96491.78
2017-11-14T19:58:55.615Z,96494.07
2017-11-14T20:01:33.023Z,96498.73
2017-11-14T20:04:02.149Z,96495.21
2017-11-14T20:06:34.770Z,96497.61
2017-11-14T20:09:04.846Z,96496.85
2017-11-14T20:11:37.023Z,96491.23
2017-11-14T20:14:07.222Z,96492.03
2017-11-14T20:21:50.804Z,96496.16
2017-11-14T20:24:19.952Z,96496.55
2017-11-14T20:26:49.092Z,96490.03
2017-11-14T20:29:18.182Z,96492.44
2017-11-14T20:31:47.240Z,96490.57
2017-11-14T20:34:17.185Z,96497.55
2017-11-14T20:36:46.522Z,96495.58
2017-11-14T20:39:17.575Z,96491.95
2017-11-14T20:41:46.637Z,96486.45
2017-11-14T20:44:15.799Z,96490.88
2017-11-14T20:46:44.843Z,96491.38
2017-11-14T20:49:13.905Z,96492.38
2017-11-14T20:51:44.087Z,96495.56
2017-11-14T20:54:14.193Z,96494.50
2017-11-14T20:56:44.232Z,96490.69
2017-11-14T20:59:13.271Z,96496.70
2017-11-14T21:04:23.529Z,96501.15
2017-11-14T21:06:52.627Z,96500.64
2017-11-14T21:09:21.679Z,96496.06
2017-11-14T21:11:51.707Z,96491.98
2017-11-14T21:14:20.776Z,96496.88
2017-11-14T21:16:51.776Z,96495.61
2017-11-14T21:19:20.835Z,96490.30
2017-11-14T21:21:49.904Z,96492.98
2017-11-14T21:26:54.452Z,96495.23
2017-11-14T21:29:23.489Z,96499.06
2017-11-14T21:31:52.567Z,96499.19
2017-11-14T21:34:21.606Z,96494.76
2017-11-14T21:36:50.654Z,96489.86
2017-11-14T21:39:21.627Z,96490.66
2017-11-14T21:41:50.723Z,96482.49
2017-11-14T21:44:21.789Z,96486.53
2017-11-14T21:46:50.872Z,96491.99
2017-11-14T21:49:19.891Z,96495.94
2017-11-14T21:51:48.958Z,96496.47
2017-11-14T21:54:17.996Z,96494.02
2017-11-14T21:56:54.000Z,96495.67
2017-11-14T21:59:29.587Z,96494.89
2017-11-14T22:04:40.901Z,96495.39
2017-11-14T22:07:14.637Z,96495.05
2017-11-14T22:09:53.069Z,96488.63
2017-11-14T22:12:29.438Z,96488.25
2017-11-14T22:15:04.429Z,96489.98
2017-11-14T22:17:39.080Z,96487.92
2017-11-14T22:20:10.879Z,96486.20
2017-11-14T22:22:42.473Z,96489.26
2017-11-14T22:25:15.506Z,96496.05
2017-11-14T22:27:45.033Z,96494.30
2017-11-14T22:30:16.930Z,96499.52
2017-11-14T22:32:52.044Z,96506.94
2017-11-14T22:38:00.268Z,96493.75
2017-11-14T22:43:10.223Z,96488.77
2017-11-14T22:48:16.231Z,96484.73
2017-11-14T22:50:50.738Z,96483.02
2017-11-14T22:53:27.205Z,96484.51
2017-11-14T22:55:56.557Z,96481.61
2017-11-14T22:58:26.691Z,96484.66
2017-11-14T23:00:55.745Z,96479.06
2017-11-14T23:03:24.845Z,96486.73
2017-11-14T23:05:54.978Z,96484.98
2017-11-14T23:08:25.068Z,96485.66
2017-11-14T23:10:54.132Z,96489.44
2017-11-14T23:13:31.201Z,96488.73
2017-11-14T23:16:00.292Z,96485.34
2017-11-14T23:18:29.363Z,96485.52
2017-11-14T23:20:58.574Z,96477.48
2017-11-14T23:23:27.673Z,96472.42
2017-11-14T23:26:00.040Z,96474.47
2017-11-14T23:28:30.090Z,96468.72
2017-11-14T23:30:59.164Z,96468.45
2017-11-14T23:33:29.476Z,96467.72
2017-11-14T23:35:59.443Z,96465.70
2017-11-14T23:38:28.509Z,96462.92
2017-11-14T23:40:57.698Z,96460.45
2017-11-14T23:43:27.980Z,96457.61
2017-11-14T23:45:57.060Z,96455.23
2017-11-14T23:48:28.070Z,96453.52
2017-11-14T23:50:57.173Z,96453.12
2017-11-14T23:53:27.235Z,96451.92
2017-11-14T23:55:58.235Z,96451.58
2017-11-14T23:58:28.233Z,96449.54
